Time;durP1;ratioP1;P1;durP2;ratioP2;P2;SDS_P1;SDS_P2;PMS_P1;PMS_P2;Temp;Humidity;BMP_temperature;BMP_pressure;BME280_temperature;BME280_humidity;BME280_pressure;Samples;Min_cycle;Max_cycle;Signal;HPM_P1;HPM_P2
2023/07/17 00:00:33;;;;;;;6.40;2.63;;;;;;;;;;5043292;28;20050;-78
2023/07/17 00:02:59;;;;;;;6.90;2.55;;;;;;;;;;5047012;28;20051;-78
2023/07/17 00:05:25;;;;;;;8.23;2.67;;;;;;;;;;5044241;28;20442;-78
2023/07/17 00:07:51;;;;;;;6.35;2.90;;;;;;;;;;5044702;28;20057;-79
2023/07/17 00:10:17;;;;;;;5.70;2.38;;;;;;;;;;5046291;28;20040;-78
2023/07/17 00:12:43;;;;;;;7.60;2.65;;;;;;;;;;5046246;28;20465;-79
2023/07/17 00:15:10;;;;;;;6.07;2.40;;;;;;;;;;5048257;28;20605;-77
2023/07/17 00:17:36;;;;;;;7.97;2.80;;;;;;;;;;5043161;28;20694;-77
2023/07/17 00:20:12;;;;;;;7.72;2.78;;;;;;;;;;5050243;28;20041;-78
2023/07/17 00:22:38;;;;;;;8.70;2.47;;;;;;;;;;5038921;28;20041;-78
2023/07/17 00:25:04;;;;;;;9.45;2.70;;;;;;;;;;5055937;28;20040;-78
2023/07/17 00:27:31;;;;;;;6.85;2.47;;;;;;;;;;5049087;28;20052;-79
2023/07/17 00:29:58;;;;;;;8.10;2.55;;;;;;;;;;5062179;28;20041;-77
2023/07/17 00:32:24;;;;;;;8.70;2.60;;;;;;;;;;5059896;28;20128;-78
2023/07/17 00:34:50;;;;;;;7.50;2.38;;;;;;;;;;5060824;28;20047;-78
2023/07/17 00:37:16;;;;;;;9.77;2.30;;;;;;;;;;5044240;28;20091;-79
2023/07/17 00:39:43;;;;;;;7.80;2.60;;;;;;;;;;5044507;28;20404;-78
2023/07/17 00:42:09;;;;;;;7.07;2.60;;;;;;;;;;5043045;28;20123;-79
2023/07/17 00:44:35;;;;;;;8.85;2.60;;;;;;;;;;5041903;28;20049;-79
2023/07/17 00:47:02;;;;;;;8.32;2.60;;;;;;;;;;5047212;28;20092;-78
2023/07/17 00:49:29;;;;;;;5.03;2.20;;;;;;;;;;5062499;28;20063;-80
2023/07/17 00:51:55;;;;;;;7.90;2.63;;;;;;;;;;5061722;28;20568;-76
2023/07/17 00:54:22;;;;;;;7.55;2.80;;;;;;;;;;5050654;28;20515;-77
2023/07/17 00:56:48;;;;;;;6.18;2.28;;;;;;;;;;5049357;28;20052;-78
2023/07/17 00:59:15;;;;;;;7.82;2.40;;;;;;;;;;5032011;28;20052;-79
2023/07/17 01:01:42;;;;;;;7.10;2.70;;;;;;;;;;5052899;28;20037;-78
2023/07/17 01:04:08;;;;;;;7.50;2.40;;;;;;;;;;5034850;28;20063;-78
2023/07/17 01:06:38;;;;;;;6.07;2.58;;;;;;;;;;5049475;28;20044;-78
2023/07/17 01:09:05;;;;;;;5.90;2.55;;;;;;;;;;5048092;28;20133;-78
2023/07/17 01:11:34;;;;;;;7.40;2.63;;;;;;;;;;5046698;28;20118;-78
2023/07/17 01:14:00;;;;;;;6.47;2.65;;;;;;;;;;5055692;28;20037;-79
2023/07/17 01:16:26;;;;;;;6.35;2.70;;;;;;;;;;5050233;28;20038;-78
2023/07/17 01:18:53;;;;;;;6.03;2.67;;;;;;;;;;5048174;28;20140;-78
2023/07/17 01:21:23;;;;;;;8.68;2.70;;;;;;;;;;5058247;28;20048;-78
2023/07/17 01:23:50;;;;;;;7.53;2.80;;;;;;;;;;5056515;28;20384;-78
2023/07/17 01:26:17;;;;;;;7.07;2.85;;;;;;;;;;5058418;28;20049;-78
2023/07/17 01:28:43;;;;;;;7.95;2.67;;;;;;;;;;5056738;28;20040;-78
2023/07/17 01:31:10;;;;;;;8.75;2.55;;;;;;;;;;5058694;28;20045;-78
2023/07/17 01:33:36;;;;;;;7.78;2.22;;;;;;;;;;5053538;28;20507;-79
2023/07/17 01:36:05;;;;;;;6.25;2.25;;;;;;;;;;5038349;28;20052;-77
2023/07/17 01:38:31;;;;;;;9.43;2.50;;;;;;;;;;5055266;28;20041;-78
2023/07/17 01:40:58;;;;;;;7.68;2.47;;;;;;;;;;5057827;28;20407;-78
2023/07/17 01:43:24;;;;;;;7.53;2.30;;;;;;;;;;5038782;28;20174;-78
2023/07/17 01:45:50;;;;;;;9.00;2.30;;;;;;;;;;5057153;28;20471;-77
2023/07/17 01:48:17;;;;;;;7.50;2.10;;;;;;;;;;5054459;28;20075;-77
2023/07/17 01:50:45;;;;;;;7.50;2.08;;;;;;;;;;5054194;28;20114;-78
2023/07/17 01:53:11;;;;;;;8.70;2.55;;;;;;;;;;5055971;28;20487;-77
2023/07/17 01:55:37;;;;;;;7.25;2.47;;;;;;;;;;5051485;28;20099;-78
2023/07/17 01:58:03;;;;;;;8.52;2.20;;;;;;;;;;5044097;28;20503;-78
2023/07/17 02:00:29;;;;;;;8.30;2.13;;;;;;;;;;5048998;28;20056;-78
2023/07/17 02:02:55;;;;;;;9.85;2.70;;;;;;;;;;5048711;28;20049;-78
2023/07/17 02:05:22;;;;;;;8.48;2.10;;;;;;;;;;5048211;28;20136;-77
2023/07/17 02:07:48;;;;;;;7.95;1.83;;;;;;;;;;5047825;28;20052;-78
2023/07/17 02:10:14;;;;;;;8.15;2.13;;;;;;;;;;5025402;28;20051;-78
2023/07/17 02:12:40;;;;;;;6.00;1.90;;;;;;;;;;5047027;28;20040;-78
2023/07/17 02:15:07;;;;;;;9.80;2.10;;;;;;;;;;5032637;28;20119;-77
2023/07/17 02:17:33;;;;;;;7.28;1.88;;;;;;;;;;5047573;28;20523;-78
2023/07/17 02:19:59;;;;;;;8.05;2.17;;;;;;;;;;5043781;28;20037;-78
2023/07/17 02:22:27;;;;;;;8.27;2.08;;;;;;;;;;5048208;28;20071;-78
2023/07/17 02:24:53;;;;;;;9.35;2.22;;;;;;;;;;5045632;28;20049;-78
2023/07/17 02:27:19;;;;;;;8.07;2.30;;;;;;;;;;5054338;28;20052;-77
2023/07/17 02:29:47;;;;;;;5.25;1.80;;;;;;;;;;5056007;28;20048;-77
2023/07/17 02:32:13;;;;;;;7.03;2.00;;;;;;;;;;5039094;28;20108;-78
2023/07/17 02:34:39;;;;;;;7.55;2.08;;;;;;;;;;5057250;28;20419;-78
2023/07/17 02:37:10;;;;;;;6.43;1.95;;;;;;;;;;5056262;28;20090;-77
2023/07/17 02:39:36;;;;;;;8.40;2.22;;;;;;;;;;5042116;28;20081;-79
2023/07/17 02:42:02;;;;;;;8.40;2.10;;;;;;;;;;5042578;28;20086;-77
2023/07/17 02:44:28;;;;;;;6.72;1.83;;;;;;;;;;5058107;28;20099;-78
2023/07/17 02:46:54;;;;;;;8.00;2.20;;;;;;;;;;5059373;28;20072;-77
2023/07/17 02:49:20;;;;;;;10.02;2.10;;;;;;;;;;5057886;28;20090;-76
2023/07/17 02:51:46;;;;;;;8.95;2.00;;;;;;;;;;5059068;28;20410;-77
2023/07/17 02:54:12;;;;;;;7.82;2.05;;;;;;;;;;5043825;28;20044;-78
2023/07/17 02:56:39;;;;;;;9.95;2.33;;;;;;;;;;5041738;28;20037;-78
2023/07/17 02:59:05;;;;;;;6.95;2.03;;;;;;;;;;5058458;28;20037;-78
2023/07/17 03:01:34;;;;;;;10.23;2.03;;;;;;;;;;5058376;28;20095;-78
2023/07/17 03:04:00;;;;;;;7.95;2.10;;;;;;;;;;5033769;28;20048;-77
2023/07/17 03:06:29;;;;;;;9.20;2.22;;;;;;;;;;5048418;28;20041;-78
2023/07/17 03:08:55;;;;;;;8.77;2.20;;;;;;;;;;5057328;28;20044;-78
2023/07/17 03:11:21;;;;;;;9.10;2.30;;;;;;;;;;5050288;28;20052;-77
2023/07/17 03:13:47;;;;;;;7.65;2.30;;;;;;;;;;5051254;28;20048;-78
2023/07/17 03:16:13;;;;;;;7.20;2.60;;;;;;;;;;5059641;28;20048;-79
2023/07/17 03:18:39;;;;;;;8.18;2.40;;;;;;;;;;5057983;28;20091;-79
2023/07/17 03:21:05;;;;;;;8.95;2.42;;;;;;;;;;5058424;28;20072;-77
2023/07/17 03:23:31;;;;;;;10.20;2.40;;;;;;;;;;5037719;28;20045;-77
2023/07/17 03:25:58;;;;;;;6.88;2.58;;;;;;;;;;5056125;28;20041;-77
2023/07/17 03:28:24;;;;;;;6.88;2.65;;;;;;;;;;5035997;28;20497;-77
2023/07/17 03:30:51;;;;;;;9.07;2.30;;;;;;;;;;5055573;28;20513;-78
2023/07/17 03:33:17;;;;;;;12.90;2.80;;;;;;;;;;5056513;28;20048;-78
2023/07/17 03:35:43;;;;;;;10.38;2.55;;;;;;;;;;5056237;28;20036;-77
2023/07/17 03:38:09;;;;;;;9.00;2.90;;;;;;;;;;5050078;28;20049;-77
2023/07/17 03:40:35;;;;;;;6.85;2.28;;;;;;;;;;5044885;28;20514;-77
2023/07/17 03:43:01;;;;;;;9.32;2.47;;;;;;;;;;5044273;28;20050;-78
2023/07/17 03:45:27;;;;;;;8.98;2.85;;;;;;;;;;5046642;28;20089;-78
2023/07/17 03:47:53;;;;;;;9.13;3.10;;;;;;;;;;5026946;28;20431;-78
2023/07/17 03:50:20;;;;;;;9.80;2.90;;;;;;;;;;5049806;28;20041;-78
2023/07/17 03:52:46;;;;;;;8.32;2.50;;;;;;;;;;5050565;28;20049;-77
2023/07/17 03:55:12;;;;;;;9.77;2.40;;;;;;;;;;5029242;28;20044;-78
2023/07/17 03:57:38;;;;;;;8.65;3.10;;;;;;;;;;5049973;28;20104;-78
2023/07/17 04:00:08;;;;;;;7.50;2.90;;;;;;;;;;5045064;28;20045;-77
2023/07/17 04:02:34;;;;;;;8.80;2.95;;;;;;;;;;5035794;28;20060;-79
2023/07/17 04:05:00;;;;;;;10.80;2.80;;;;;;;;;;5051952;28;20036;-78
2023/07/17 04:07:26;;;;;;;11.38;3.13;;;;;;;;;;5049345;28;20068;-79
2023/07/17 04:09:53;;;;;;;9.90;3.08;;;;;;;;;;5051938;28;20048;-77
2023/07/17 04:12:19;;;;;;;10.90;3.42;;;;;;;;;;5057202;28;20056;-77
2023/07/17 04:14:45;;;;;;;10.50;3.20;;;;;;;;;;5038686;28;20128;-77
2023/07/17 04:17:11;;;;;;;8.68;2.95;;;;;;;;;;5044633;28;20380;-77
2023/07/17 04:19:37;;;;;;;13.02;3.53;;;;;;;;;;5058649;28;20077;-77
2023/07/17 04:22:03;;;;;;;8.43;2.85;;;;;;;;;;5058612;28;20044;-77
2023/07/17 04:24:29;;;;;;;9.80;3.10;;;;;;;;;;5037813;28;20049;-77
2023/07/17 04:26:55;;;;;;;11.02;3.63;;;;;;;;;;5058661;28;20056;-77
2023/07/17 04:29:27;;;;;;;9.80;3.38;;;;;;;;;;5059880;28;20412;-77
2023/07/17 04:31:54;;;;;;;9.57;2.97;;;;;;;;;;5059864;28;20387;-78
2023/07/17 04:34:20;;;;;;;9.68;3.75;;;;;;;;;;5059404;28;20106;-78
2023/07/17 04:36:46;;;;;;;11.95;4.03;;;;;;;;;;5048630;28;20407;-79
2023/07/17 04:39:12;;;;;;;10.00;3.90;;;;;;;;;;5041913;28;20048;-78
2023/07/17 04:41:39;;;;;;;7.63;3.53;;;;;;;;;;5040592;28;20152;-78
2023/07/17 04:44:05;;;;;;;8.40;3.63;;;;;;;;;;5057664;28;20110;-78
2023/07/17 04:46:31;;;;;;;11.25;3.47;;;;;;;;;;5055040;28;20044;-78
2023/07/17 04:48:57;;;;;;;10.32;3.67;;;;;;;;;;5055923;28;20051;-79
2023/07/17 04:51:23;;;;;;;10.60;3.72;;;;;;;;;;5059635;28;20125;-79
2023/07/17 04:53:49;;;;;;;8.32;3.20;;;;;;;;;;5040924;28;20094;-78
2023/07/17 04:56:16;;;;;;;10.48;3.75;;;;;;;;;;5059798;28;20120;-79
2023/07/17 04:58:42;;;;;;;9.80;3.72;;;;;;;;;;5060902;28;20102;-79
2023/07/17 05:01:08;;;;;;;7.22;3.50;;;;;;;;;;5058190;28;20499;-78
2023/07/17 05:03:35;;;;;;;12.00;3.70;;;;;;;;;;5058504;28;20051;-78
2023/07/17 05:06:03;;;;;;;10.98;3.50;;;;;;;;;;5057188;28;20578;-78
2023/07/17 05:08:29;;;;;;;10.38;3.45;;;;;;;;;;5059462;28;20041;-78
2023/07/17 05:10:59;;;;;;;10.68;3.75;;;;;;;;;;5041513;28;20089;-77
2023/07/17 05:13:25;;;;;;;10.27;3.67;;;;;;;;;;5058909;28;20378;-78
2023/07/17 05:15:52;;;;;;;8.95;3.65;;;;;;;;;;5058766;28;20044;-78
2023/07/17 05:18:18;;;;;;;11.60;3.92;;;;;;;;;;5042458;28;20132;-78
2023/07/17 05:20:45;;;;;;;12.75;3.40;;;;;;;;;;5060057;28;20048;-79
2023/07/17 05:23:11;;;;;;;12.57;3.75;;;;;;;;;;5060823;28;20056;-79
2023/07/17 05:25:37;;;;;;;10.82;3.40;;;;;;;;;;5060779;28;20458;-78
2023/07/17 05:28:04;;;;;;;9.88;3.47;;;;;;;;;;5057992;28;20487;-78
2023/07/17 05:30:33;;;;;;;10.00;4.05;;;;;;;;;;5041439;28;20049;-78
2023/07/17 05:32:59;;;;;;;11.82;3.38;;;;;;;;;;5058997;28;20049;-78
2023/07/17 05:35:25;;;;;;;13.10;3.80;;;;;;;;;;5060461;28;20048;-78
2023/07/17 05:37:51;;;;;;;8.70;3.38;;;;;;;;;;5055494;28;20041;-78
2023/07/17 05:40:17;;;;;;;15.20;3.60;;;;;;;;;;5040449;28;20092;-79
2023/07/17 05:42:43;;;;;;;9.90;3.72;;;;;;;;;;5041852;28;20113;-78
2023/07/17 05:45:10;;;;;;;10.15;4.03;;;;;;;;;;5027217;28;20061;-79
2023/07/17 05:47:37;;;;;;;9.85;3.58;;;;;;;;;;5047414;28;20049;-79
2023/07/17 05:50:03;;;;;;;7.45;3.17;;;;;;;;;;5064049;28;20045;-80
2023/07/17 05:52:29;;;;;;;9.45;3.38;;;;;;;;;;5063887;28;20099;-80
2023/07/17 05:54:55;;;;;;;9.45;3.13;;;;;;;;;;5046490;28;20151;-79
2023/07/17 05:57:21;;;;;;;14.43;3.25;;;;;;;;;;5064193;28;20055;-79
2023/07/17 05:59:47;;;;;;;9.93;3.67;;;;;;;;;;5063884;28;20162;-79
2023/07/17 06:02:15;;;;;;;11.68;3.63;;;;;;;;;;5063405;28;20052;-79
2023/07/17 06:04:41;;;;;;;9.55;3.38;;;;;;;;;;5059249;28;20053;-80
2023/07/17 06:07:07;;;;;;;12.45;3.50;;;;;;;;;;5044407;28;20049;-79
2023/07/17 06:09:36;;;;;;;16.05;3.72;;;;;;;;;;5027490;28;20099;-79
2023/07/17 06:12:02;;;;;;;13.02;3.55;;;;;;;;;;5044059;28;20045;-79
2023/07/17 06:14:28;;;;;;;10.80;4.00;;;;;;;;;;5063299;28;20084;-78
2023/07/17 06:16:54;;;;;;;10.80;3.40;;;;;;;;;;5059215;28;20037;-78
2023/07/17 06:19:20;;;;;;;9.25;3.70;;;;;;;;;;5058431;28;20458;-78
2023/07/17 06:21:47;;;;;;;10.45;3.85;;;;;;;;;;5042111;28;20080;-79
2023/07/17 06:24:13;;;;;;;12.27;4.05;;;;;;;;;;5060497;28;20041;-78
2023/07/17 06:26:39;;;;;;;14.00;4.53;;;;;;;;;;5043586;28;20054;-79
2023/07/17 06:29:05;;;;;;;11.55;4.22;;;;;;;;;;5058385;28;20057;-79
2023/07/17 06:31:32;;;;;;;10.55;4.10;;;;;;;;;;5061182;28;20049;-78
2023/07/17 06:33:58;;;;;;;15.95;4.47;;;;;;;;;;5060732;28;20444;-79
2023/07/17 06:36:24;;;;;;;11.00;4.25;;;;;;;;;;5058140;28;20052;-78
2023/07/17 06:38:50;;;;;;;10.48;3.97;;;;;;;;;;5041659;28;20049;-79
2023/07/17 06:41:16;;;;;;;12.25;4.03;;;;;;;;;;5042041;28;20238;-79
2023/07/17 06:43:43;;;;;;;10.77;4.50;;;;;;;;;;5039620;28;20049;-79
2023/07/17 06:46:09;;;;;;;13.65;4.20;;;;;;;;;;5040699;28;20049;-79
2023/07/17 06:48:35;;;;;;;13.90;4.53;;;;;;;;;;5023156;28;20064;-78
2023/07/17 06:51:04;;;;;;;12.80;4.18;;;;;;;;;;5056426;28;20045;-79
2023/07/17 06:53:30;;;;;;;10.65;4.43;;;;;;;;;;5064139;28;20046;-80
2023/07/17 06:55:57;;;;;;;11.63;4.22;;;;;;;;;;5064213;28;20071;-79
2023/07/17 06:58:23;;;;;;;10.93;4.70;;;;;;;;;;5046092;28;20052;-79
2023/07/17 07:00:59;;;;;;;12.05;4.28;;;;;;;;;;5063638;28;20483;-80
2023/07/17 07:03:26;;;;;;;11.48;4.13;;;;;;;;;;5063420;28;20126;-81
2023/07/17 07:05:56;;;;;;;13.60;4.20;;;;;;;;;;5059623;28;20068;-79
2023/07/17 07:08:26;;;;;;;11.27;4.80;;;;;;;;;;5039499;28;20099;-78
2023/07/17 07:10:53;;;;;;;13.25;4.47;;;;;;;;;;5052373;28;20049;-77
2023/07/17 07:13:20;;;;;;;10.48;4.45;;;;;;;;;;5040847;28;20056;-77
2023/07/17 07:15:46;;;;;;;11.60;4.32;;;;;;;;;;5038934;28;20091;-78
2023/07/17 07:18:12;;;;;;;12.15;4.95;;;;;;;;;;5052832;28;20156;-78
2023/07/17 07:20:38;;;;;;;9.95;4.32;;;;;;;;;;5042080;28;20136;-78
2023/07/17 07:23:04;;;;;;;11.30;4.40;;;;;;;;;;5058273;28;20406;-78
2023/07/17 07:25:30;;;;;;;11.43;4.70;;;;;;;;;;5059287;28;20044;-79
2023/07/17 07:27:59;;;;;;;12.85;4.50;;;;;;;;;;5061255;28;20056;-79
2023/07/17 07:30:25;;;;;;;12.23;4.65;;;;;;;;;;5061736;28;20049;-79
2023/07/17 07:32:51;;;;;;;11.15;4.47;;;;;;;;;;5045613;28;20049;-79
2023/07/17 07:35:17;;;;;;;11.05;4.43;;;;;;;;;;5045847;28;20048;-79
2023/07/17 07:37:43;;;;;;;11.32;4.70;;;;;;;;;;5064275;28;20068;-79
2023/07/17 07:40:11;;;;;;;13.38;4.65;;;;;;;;;;5062097;28;20132;-78
2023/07/17 07:42:38;;;;;;;12.63;4.75;;;;;;;;;;5060583;28;20426;-78
2023/07/17 07:45:04;;;;;;;11.45;4.72;;;;;;;;;;5061200;28;20053;-79
2023/07/17 07:47:30;;;;;;;9.63;4.25;;;;;;;;;;5062179;28;20115;-78
2023/07/17 07:49:56;;;;;;;11.93;4.53;;;;;;;;;;5064195;28;20632;-78
2023/07/17 07:52:22;;;;;;;10.50;4.22;;;;;;;;;;5061691;28;20140;-78
2023/07/17 07:54:48;;;;;;;13.45;4.53;;;;;;;;;;5062699;28;20041;-78
2023/07/17 07:57:14;;;;;;;11.75;4.57;;;;;;;;;;5060244;28;20056;-79
2023/07/17 07:59:40;;;;;;;11.60;4.60;;;;;;;;;;5042607;28;20052;-78
2023/07/17 08:02:07;;;;;;;11.30;4.15;;;;;;;;;;5056245;28;20033;-78
2023/07/17 08:04:33;;;;;;;12.18;4.60;;;;;;;;;;5039642;28;20045;-78
2023/07/17 08:06:59;;;;;;;13.43;5.00;;;;;;;;;;5060493;28;20136;-78
2023/07/17 08:09:25;;;;;;;12.90;4.85;;;;;;;;;;5060856;28;20059;-78
2023/07/17 08:11:55;;;;;;;11.95;4.22;;;;;;;;;;5060240;28;20444;-78
2023/07/17 08:14:21;;;;;;;11.82;4.82;;;;;;;;;;5061188;28;20142;-78
2023/07/17 08:16:50;;;;;;;9.82;4.07;;;;;;;;;;5060873;28;20056;-79
2023/07/17 08:19:20;;;;;;;11.55;4.30;;;;;;;;;;5061661;28;20049;-78
2023/07/17 08:21:46;;;;;;;12.95;4.05;;;;;;;;;;5059266;28;20067;-78
2023/07/17 08:24:12;;;;;;;12.05;3.95;;;;;;;;;;5060071;28;20048;-79
2023/07/17 08:26:38;;;;;;;9.98;3.42;;;;;;;;;;5059337;28;20040;-79
2023/07/17 08:29:08;;;;;;;10.50;3.95;;;;;;;;;;5054401;28;20045;-78
2023/07/17 08:31:34;;;;;;;13.20;3.80;;;;;;;;;;5040715;28;20095;-78
2023/07/17 08:34:01;;;;;;;10.77;3.80;;;;;;;;;;5055939;28;20048;-78
2023/07/17 08:36:31;;;;;;;9.32;3.90;;;;;;;;;;5041684;28;20041;-78
2023/07/17 08:38:57;;;;;;;10.98;3.83;;;;;;;;;;5060276;28;20045;-78
2023/07/17 08:41:23;;;;;;;12.68;3.78;;;;;;;;;;5060025;28;20066;-79
2023/07/17 08:43:50;;;;;;;10.60;3.90;;;;;;;;;;5038967;28;20053;-79
2023/07/17 08:46:16;;;;;;;11.57;3.90;;;;;;;;;;5040605;28;20539;-79
2023/07/17 08:48:47;;;;;;;8.85;3.63;;;;;;;;;;5043027;28;20077;-79
2023/07/17 08:51:14;;;;;;;8.85;3.35;;;;;;;;;;5041154;28;20045;-78
2023/07/17 08:53:41;;;;;;;9.95;3.53;;;;;;;;;;5059914;28;20083;-79
2023/07/17 08:56:08;;;;;;;11.43;4.03;;;;;;;;;;5066945;28;20052;-79
2023/07/17 08:58:34;;;;;;;10.80;3.88;;;;;;;;;;5064011;28;20059;-78
2023/07/17 09:01:00;;;;;;;9.50;3.88;;;;;;;;;;5058611;28;20045;-77
2023/07/17 09:03:26;;;;;;;10.93;3.90;;;;;;;;;;5057883;28;20037;-79
2023/07/17 09:05:52;;;;;;;11.30;4.57;;;;;;;;;;5056928;28;20057;-79
2023/07/17 09:08:18;;;;;;;9.52;3.50;;;;;;;;;;5041773;28;20149;-78
2023/07/17 09:10:45;;;;;;;9.52;3.92;;;;;;;;;;5059680;28;20100;-78
2023/07/17 09:13:11;;;;;;;8.98;3.90;;;;;;;;;;5059851;28;20123;-78
2023/07/17 09:15:38;;;;;;;9.20;3.55;;;;;;;;;;5059718;28;20045;-78
2023/07/17 09:18:04;;;;;;;10.30;3.80;;;;;;;;;;5060182;28;20045;-78
2023/07/17 09:20:30;;;;;;;11.55;4.05;;;;;;;;;;5061227;28;20049;-78
2023/07/17 09:22:59;;;;;;;9.90;3.85;;;;;;;;;;5060216;28;20037;-79
2023/07/17 09:25:28;;;;;;;9.90;4.10;;;;;;;;;;5061571;28;20052;-79
2023/07/17 09:27:55;;;;;;;10.27;4.07;;;;;;;;;;5055559;28;20083;-79
2023/07/17 09:30:25;;;;;;;9.25;3.85;;;;;;;;;;5063277;28;20041;-78
2023/07/17 09:32:51;;;;;;;9.30;4.00;;;;;;;;;;5060832;28;20052;-78
2023/07/17 09:35:23;;;;;;;8.63;3.88;;;;;;;;;;5059295;28;20527;-78
2023/07/17 09:37:50;;;;;;;11.13;4.15;;;;;;;;;;5059433;28;20053;-78
2023/07/17 09:40:19;;;;;;;9.70;4.10;;;;;;;;;;5060893;28;20175;-79
2023/07/17 09:42:51;;;;;;;10.90;4.47;;;;;;;;;;5039908;28;20045;-78
2023/07/17 09:45:19;;;;;;;9.70;4.13;;;;;;;;;;5041639;28;20426;-79
2023/07/17 09:47:45;;;;;;;13.02;4.80;;;;;;;;;;5042185;28;20053;-78
2023/07/17 09:50:13;;;;;;;7.88;3.80;;;;;;;;;;5060638;28;20033;-78
2023/07/17 09:52:39;;;;;;;9.80;4.63;;;;;;;;;;5062351;28;20139;-78
2023/07/17 09:55:06;;;;;;;10.48;4.50;;;;;;;;;;5061312;28;20436;-79
2023/07/17 09:57:35;;;;;;;10.82;4.93;;;;;;;;;;5064469;28;20056;-79
2023/07/17 10:00:13;;;;;;;17.55;4.25;;;;;;;;;;5064162;28;20101;-79
2023/07/17 10:02:56;;;;;;;12.30;4.35;;;;;;;;;;5063709;28;20163;-78
2023/07/17 10:05:22;;;;;;;11.00;4.20;;;;;;;;;;5029589;28;20056;-79
2023/07/17 10:07:49;;;;;;;9.13;3.30;;;;;;;;;;5063611;28;20091;-79
2023/07/17 10:10:15;;;;;;;10.05;3.83;;;;;;;;;;5046088;28;20128;-79
2023/07/17 10:12:42;;;;;;;13.60;3.80;;;;;;;;;;5044571;28;20045;-79
2023/07/17 10:15:09;;;;;;;9.27;3.60;;;;;;;;;;5062741;28;20053;-78
2023/07/17 10:17:36;;;;;;;9.65;4.38;;;;;;;;;;5063891;28;20055;-78
2023/07/17 10:20:09;;;;;;;10.63;3.55;;;;;;;;;;5065032;28;20053;-79
2023/07/17 10:22:45;;;;;;;10.90;3.10;;;;;;;;;;5046476;28;20090;-79
2023/07/17 10:25:32;;;;;;;11.10;2.90;;;;;;;;;;5046715;28;20041;-79
2023/07/17 10:27:59;;;;;;;10.27;3.13;;;;;;;;;;5025860;28;20049;-78
2023/07/17 10:30:25;;;;;;;6.82;2.53;;;;;;;;;;5043268;28;20041;-79
2023/07/17 10:33:10;;;;;;;8.35;2.95;;;;;;;;;;5042650;28;20060;-79
2023/07/17 10:35:45;;;;;;;8.02;2.65;;;;;;;;;;5047196;28;20041;-79
2023/07/17 10:38:12;;;;;;;10.18;2.90;;;;;;;;;;5061943;28;20049;-79
2023/07/17 10:40:38;;;;;;;9.77;3.13;;;;;;;;;;5064726;28;20466;-79
2023/07/17 10:43:20;;;;;;;7.15;2.65;;;;;;;;;;5064639;28;20100;-80
2023/07/17 10:45:47;;;;;;;8.90;2.83;;;;;;;;;;5027068;28;20072;-79
2023/07/17 10:48:14;;;;;;;7.32;2.58;;;;;;;;;;5044303;28;20053;-79
2023/07/17 10:50:48;;;;;;;7.50;2.80;;;;;;;;;;5041215;28;20105;-78
2023/07/17 10:53:14;;;;;;;9.40;2.53;;;;;;;;;;5022391;28;20386;-79
2023/07/17 10:55:40;;;;;;;7.97;2.67;;;;;;;;;;5044883;28;20388;-79
2023/07/17 10:58:06;;;;;;;7.47;2.60;;;;;;;;;;5043479;28;20041;-79
2023/07/17 11:00:33;;;;;;;8.07;2.40;;;;;;;;;;5043897;28;20045;-80
2023/07/17 11:03:00;;;;;;;7.95;2.60;;;;;;;;;;5043134;28;20037;-78
2023/07/17 11:05:26;;;;;;;7.47;2.75;;;;;;;;;;5037826;28;20057;-79
2023/07/17 11:07:52;;;;;;;7.40;2.75;;;;;;;;;;5021317;28;20057;-78
2023/07/17 11:10:18;;;;;;;7.22;2.50;;;;;;;;;;5021510;28;20048;-79
2023/07/17 11:12:44;;;;;;;9.20;2.60;;;;;;;;;;5041966;28;20049;-79
2023/07/17 11:15:14;;;;;;;7.50;2.25;;;;;;;;;;5039806;28;20170;-80
2023/07/17 11:17:40;;;;;;;8.90;2.40;;;;;;;;;;5038946;28;20041;-78
2023/07/17 11:20:07;;;;;;;10.77;3.20;;;;;;;;;;5037454;28;20406;-78
2023/07/17 11:22:33;;;;;;;6.65;2.53;;;;;;;;;;5019650;28;20389;-78
2023/07/17 11:25:00;;;;;;;11.23;2.50;;;;;;;;;;5038173;28;20041;-78
2023/07/17 11:27:26;;;;;;;9.75;2.80;;;;;;;;;;5020176;28;20124;-78
2023/07/17 11:29:53;;;;;;;9.32;2.88;;;;;;;;;;5040111;28;20046;-79
2023/07/17 11:32:19;;;;;;;10.25;2.70;;;;;;;;;;5040627;28;20380;-78
2023/07/17 11:35:01;;;;;;;8.32;2.72;;;;;;;;;;5041290;28;20049;-79
2023/07/17 11:37:34;;;;;;;8.73;2.92;;;;;;;;;;5040699;28;20037;-78
2023/07/17 11:40:06;;;;;;;7.63;2.75;;;;;;;;;;5042913;28;20057;-80
2023/07/17 11:42:55;;;;;;;8.25;2.90;;;;;;;;;;5023642;28;20053;-78
2023/07/17 11:45:31;;;;;;;9.65;3.03;;;;;;;;;;5054534;28;20141;-79
2023/07/17 11:47:57;;;;;;;8.27;3.03;;;;;;;;;;5058945;28;20048;-78
2023/07/17 11:50:24;;;;;;;8.75;2.80;;;;;;;;;;5060128;28;20095;-78
2023/07/17 11:53:03;;;;;;;9.00;2.90;;;;;;;;;;5059603;28;20128;-78
2023/07/17 11:55:39;;;;;;;7.00;2.55;;;;;;;;;;5060635;28;20045;-79
2023/07/17 11:58:15;;;;;;;8.52;2.80;;;;;;;;;;5040890;28;20414;-78
2023/07/17 12:00:42;;;;;;;8.65;2.50;;;;;;;;;;5063087;28;20501;-79
2023/07/17 12:03:08;;;;;;;7.55;2.60;;;;;;;;;;5062306;28;20406;-79
2023/07/17 12:05:35;;;;;;;9.25;3.03;;;;;;;;;;5063172;28;20060;-79
2023/07/17 12:08:01;;;;;;;9.18;2.20;;;;;;;;;;5062530;28;20496;-79
2023/07/17 12:10:27;;;;;;;8.18;3.00;;;;;;;;;;5039693;28;20127;-79
2023/07/17 12:12:56;;;;;;;7.75;2.10;;;;;;;;;;5056992;28;20045;-79
2023/07/17 12:15:22;;;;;;;8.32;2.22;;;;;;;;;;5058174;28;20049;-79
2023/07/17 12:17:49;;;;;;;9.60;2.47;;;;;;;;;;5052062;28;20192;-78
2023/07/17 12:20:15;;;;;;;8.25;2.65;;;;;;;;;;5060298;28;20049;-79
2023/07/17 12:22:45;;;;;;;7.03;2.25;;;;;;;;;;5065394;28;20041;-79
2023/07/17 12:25:11;;;;;;;8.93;2.38;;;;;;;;;;5066583;28;20120;-79
2023/07/17 12:27:38;;;;;;;6.97;2.10;;;;;;;;;;5067161;28;20075;-79
2023/07/17 12:30:04;;;;;;;7.45;2.00;;;;;;;;;;5065971;28;20045;-79
2023/07/17 12:32:30;;;;;;;7.82;2.35;;;;;;;;;;5047404;28;20052;-79
2023/07/17 12:34:56;;;;;;;6.85;2.17;;;;;;;;;;5046264;28;20041;-79
2023/07/17 12:37:22;;;;;;;7.60;2.13;;;;;;;;;;5066793;28;20041;-79
2023/07/17 12:39:48;;;;;;;6.85;2.42;;;;;;;;;;5065775;28;20037;-79
2023/07/17 12:42:15;;;;;;;9.07;2.40;;;;;;;;;;5066316;28;20053;-79
2023/07/17 12:44:41;;;;;;;6.57;2.38;;;;;;;;;;5065752;28;20053;-79
2023/07/17 12:47:07;;;;;;;8.18;2.38;;;;;;;;;;5065272;28;20124;-79
2023/07/17 12:49:33;;;;;;;10.00;2.20;;;;;;;;;;5065235;28;20077;-79
2023/07/17 12:52:00;;;;;;;10.02;2.70;;;;;;;;;;5047876;28;20056;-79
2023/07/17 12:54:27;;;;;;;10.05;2.80;;;;;;;;;;5050460;28;20116;-78
2023/07/17 12:56:53;;;;;;;10.82;3.45;;;;;;;;;;5041995;28;20101;-78
2023/07/17 12:59:19;;;;;;;17.35;6.15;;;;;;;;;;5039036;28;20064;-78
2023/07/17 13:01:46;;;;;;;10.02;3.28;;;;;;;;;;5058692;28;20056;-80
2023/07/17 13:04:12;;;;;;;7.57;2.22;;;;;;;;;;5062486;28;20415;-79
2023/07/17 13:06:38;;;;;;;9.65;2.25;;;;;;;;;;5044099;28;20049;-79
2023/07/17 13:09:06;;;;;;;7.32;2.22;;;;;;;;;;5060570;28;20045;-78
2023/07/17 13:11:33;;;;;;;9.57;2.83;;;;;;;;;;5058058;28;20052;-79
2023/07/17 13:13:59;;;;;;;9.93;2.83;;;;;;;;;;5054462;28;20090;-79
2023/07/17 13:16:25;;;;;;;8.50;2.67;;;;;;;;;;5040156;28;20052;-78
2023/07/17 13:18:51;;;;;;;9.82;2.75;;;;;;;;;;5034828;28;20064;-78
2023/07/17 13:21:17;;;;;;;9.48;2.97;;;;;;;;;;5033758;28;20096;-78
2023/07/17 13:23:44;;;;;;;8.60;2.42;;;;;;;;;;5037029;28;20054;-78
2023/07/17 13:26:10;;;;;;;9.68;2.88;;;;;;;;;;5040136;28;20054;-78
2023/07/17 13:28:36;;;;;;;7.22;2.58;;;;;;;;;;5042141;28;20377;-79
2023/07/17 13:31:02;;;;;;;8.70;2.42;;;;;;;;;;5055744;28;20041;-79
2023/07/17 13:33:28;;;;;;;7.20;2.33;;;;;;;;;;5056144;28;20117;-78
2023/07/17 13:35:55;;;;;;;8.77;2.25;;;;;;;;;;5054712;28;20060;-78
2023/07/17 13:38:21;;;;;;;7.65;2.45;;;;;;;;;;5054512;28;20053;-79
2023/07/17 13:40:48;;;;;;;7.70;2.22;;;;;;;;;;5055181;28;20501;-78
2023/07/17 13:43:14;;;;;;;6.85;2.30;;;;;;;;;;5043171;28;20041;-79
2023/07/17 13:45:40;;;;;;;6.47;1.92;;;;;;;;;;5034699;28;20490;-78
2023/07/17 13:48:06;;;;;;;8.02;2.17;;;;;;;;;;5054015;28;20094;-80
2023/07/17 13:50:32;;;;;;;6.90;2.33;;;;;;;;;;5054424;28;20060;-78
2023/07/17 13:52:58;;;;;;;6.38;1.92;;;;;;;;;;5054533;28;20052;-78
2023/07/17 13:55:25;;;;;;;6.22;2.20;;;;;;;;;;5054882;28;20062;-78
2023/07/17 13:57:51;;;;;;;7.32;2.50;;;;;;;;;;5046027;28;20064;-78
2023/07/17 14:00:17;;;;;;;7.50;2.50;;;;;;;;;;5033760;28;20500;-77
2023/07/17 14:02:43;;;;;;;7.72;2.60;;;;;;;;;;5033598;28;20053;-77
2023/07/17 14:05:09;;;;;;;6.85;2.65;;;;;;;;;;5034607;28;20045;-78
2023/07/17 14:07:35;;;;;;;7.32;2.63;;;;;;;;;;5034028;28;20418;-78
2023/07/17 14:10:02;;;;;;;9.27;2.75;;;;;;;;;;5034964;28;20061;-78
2023/07/17 14:12:28;;;;;;;7.18;3.03;;;;;;;;;;5033662;28;20455;-78
2023/07/17 14:14:54;;;;;;;7.03;2.47;;;;;;;;;;5034459;28;20057;-78
2023/07/17 14:17:20;;;;;;;8.52;2.78;;;;;;;;;;5034509;28;20045;-79
2023/07/17 14:19:46;;;;;;;8.90;2.58;;;;;;;;;;5035327;28;20060;-78
2023/07/17 14:22:12;;;;;;;8.45;2.90;;;;;;;;;;5033873;28;20041;-78
2023/07/17 14:24:38;;;;;;;7.82;2.83;;;;;;;;;;5036614;28;20116;-78
2023/07/17 14:27:04;;;;;;;8.48;2.58;;;;;;;;;;5054307;28;20090;-78
2023/07/17 14:29:30;;;;;;;6.03;2.47;;;;;;;;;;5054899;28;20045;-78
2023/07/17 14:31:56;;;;;;;8.18;2.30;;;;;;;;;;5054807;28;20072;-77
2023/07/17 14:34:28;;;;;;;8.25;2.10;;;;;;;;;;5017905;28;20046;-78
2023/07/17 14:36:54;;;;;;;8.10;2.67;;;;;;;;;;5014749;28;20046;-78